sensor_id;sensor_type;location;lat;lon;timestamp;pressure;altitude;pressure_sealevel;temperature;humidity
22389;BME280;11362;48.102;11.620;2023-04-08T00:00:40;95243.00;;;22.93;28.99
22389;BME280;11362;48.102;11.620;2023-04-08T00:03:05;95245.75;;;22.93;29.07
22389;BME280;11362;48.102;11.620;2023-04-08T00:05:31;95245.00;;;22.93;28.99
22389;BME280;11362;48.102;11.620;2023-04-08T00:07:56;95246.56;;;22.94;28.95
22389;BME280;11362;48.102;11.620;2023-04-08T00:10:22;95247.75;;;22.93;28.98
22389;BME280;11362;48.102;11.620;2023-04-08T00:12:47;95246.19;;;22.92;28.94
22389;BME280;11362;48.102;11.620;2023-04-08T00:15:12;95250.53;;;22.93;28.97
22389;BME280;11362;48.102;11.620;2023-04-08T00:17:38;95248.53;;;22.93;28.92
22389;BME280;11362;48.102;11.620;2023-04-08T00:20:04;95248.53;;;22.93;28.83
22389;BME280;11362;48.102;11.620;2023-04-08T00:22:29;95256.06;;;22.93;28.85
22389;BME280;11362;48.102;11.620;2023-04-08T00:24:55;95250.53;;;22.93;29.03
22389;BME280;11362;48.102;11.620;2023-04-08T00:27:21;95252.91;;;22.91;28.86
22389;BME280;11362;48.102;11.620;2023-04-08T00:29:46;95252.50;;;22.92;28.86
22389;BME280;11362;48.102;11.620;2023-04-08T00:32:11;95254.50;;;22.92;28.99
22389;BME280;11362;48.102;11.620;2023-04-08T00:34:37;95260.03;;;22.92;28.81
22389;BME280;11362;48.102;11.620;2023-04-08T00:37:02;95262.03;;;22.91;28.90
22389;BME280;11362;48.102;11.620;2023-04-08T00:39:28;95257.28;;;22.92;29.00
22389;BME280;11362;48.102;11.620;2023-04-08T00:41:53;95266.34;;;22.92;28.94
22389;BME280;11362;48.102;11.620;2023-04-08T00:44:18;95256.88;;;22.90;28.97
22389;BME280;11362;48.102;11.620;2023-04-08T00:46:43;95258.44;;;22.91;28.89
22389;BME280;11362;48.102;11.620;2023-04-08T00:49:09;95260.44;;;22.90;28.90
22389;BME280;11362;48.102;11.620;2023-04-08T00:51:34;95259.66;;;22.90;29.06
22389;BME280;11362;48.102;11.620;2023-04-08T00:53:59;95259.66;;;22.90;28.94
22389;BME280;11362;48.102;11.620;2023-04-08T00:56:25;95258.09;;;22.89;28.95
22389;BME280;11362;48.102;11.620;2023-04-08T00:58:50;95257.69;;;22.90;29.06
22389;BME280;11362;48.102;11.620;2023-04-08T01:01:33;95257.69;;;22.90;28.94
22389;BME280;11362;48.102;11.620;2023-04-08T01:07:16;95262.41;;;22.90;28.88
22389;BME280;11362;48.102;11.620;2023-04-08T01:09:48;95262.41;;;22.90;29.07
22389;BME280;11362;48.102;11.620;2023-04-08T01:12:20;95251.34;;;22.90;29.02
22389;BME280;11362;48.102;11.620;2023-04-08T01:14:47;95256.13;;;22.89;28.96
22389;BME280;11362;48.102;11.620;2023-04-08T01:17:14;95251.78;;;22.88;28.91
22389;BME280;11362;48.102;11.620;2023-04-08T01:19:42;95255.31;;;22.89;29.00
22389;BME280;11362;48.102;11.620;2023-04-08T01:22:18;95251.34;;;22.90;29.06
22389;BME280;11362;48.102;11.620;2023-04-08T01:24:49;95252.53;;;22.89;28.90
22389;BME280;11362;48.102;11.620;2023-04-08T01:27:16;95248.22;;;22.88;28.83
22389;BME280;11362;48.102;11.620;2023-04-08T01:29:43;95256.53;;;22.88;28.99
22389;BME280;11362;48.102;11.620;2023-04-08T01:32:09;95259.28;;;22.88;28.98
22389;BME280;11362;48.102;11.620;2023-04-08T01:34:35;95257.31;;;22.88;29.05
22389;BME280;11362;48.102;11.620;2023-04-08T01:37:03;95247.41;;;22.87;28.87
22389;BME280;11362;48.102;11.620;2023-04-08T01:39:29;95255.31;;;22.89;28.97
22389;BME280;11362;48.102;11.620;2023-04-08T01:41:56;95252.94;;;22.87;29.02
22389;BME280;11362;48.102;11.620;2023-04-08T01:44:23;95249.78;;;22.89;29.04
22389;BME280;11362;48.102;11.620;2023-04-08T01:46:49;95250.97;;;22.88;28.93
22389;BME280;11362;48.102;11.620;2023-04-08T01:49:16;95248.22;;;22.88;29.05
22389;BME280;11362;48.102;11.620;2023-04-08T01:51:42;95254.94;;;22.87;28.92
22389;BME280;11362;48.102;11.620;2023-04-08T01:54:08;95254.16;;;22.86;28.91
22389;BME280;11362;48.102;11.620;2023-04-08T01:56:36;95250.63;;;22.86;28.88
22389;BME280;11362;48.102;11.620;2023-04-08T01:59:09;95250.63;;;22.86;29.07
22389;BME280;11362;48.102;11.620;2023-04-08T02:01:35;95260.50;;;22.87;29.12
22389;BME280;11362;48.102;11.620;2023-04-08T02:04:02;95251.38;;;22.86;28.92
22389;BME280;11362;48.102;11.620;2023-04-08T02:06:28;95252.94;;;22.87;29.19
22389;BME280;11362;48.102;11.620;2023-04-08T02:08:54;95252.19;;;22.87;28.93
22389;BME280;11362;48.102;11.620;2023-04-08T02:11:20;95257.72;;;22.87;28.99
22389;BME280;11362;48.102;11.620;2023-04-08T02:13:45;95260.50;;;22.87;28.93
22389;BME280;11362;48.102;11.620;2023-04-08T02:16:18;95259.69;;;22.86;29.02
22389;BME280;11362;48.102;11.620;2023-04-08T02:18:54;95256.16;;;22.86;29.07
22389;BME280;11362;48.102;11.620;2023-04-08T02:21:21;95254.59;;;22.85;28.92
22389;BME280;11362;48.102;11.620;2023-04-08T02:23:51;95256.16;;;22.86;28.87
22389;BME280;11362;48.102;11.620;2023-04-08T02:26:17;95256.56;;;22.84;29.11
22389;BME280;11362;48.102;11.620;2023-04-08T02:28:44;95254.59;;;22.85;28.99
22389;BME280;11362;48.102;11.620;2023-04-08T02:31:12;95261.69;;;22.86;28.95
22389;BME280;11362;48.102;11.620;2023-04-08T02:33:39;95252.59;;;22.85;28.93
22389;BME280;11362;48.102;11.620;2023-04-08T02:36:05;95253.78;;;22.84;28.95
22389;BME280;11362;48.102;11.620;2023-04-08T02:38:31;95254.59;;;22.85;28.99
22389;BME280;11362;48.102;11.620;2023-04-08T02:40:56;95253.03;;;22.84;29.08
22389;BME280;11362;48.102;11.620;2023-04-08T02:43:22;95256.97;;;22.83;28.93
22389;BME280;11362;48.102;11.620;2023-04-08T02:45:47;95259.31;;;22.84;28.96
22389;BME280;11362;48.102;11.620;2023-04-08T02:48:12;95258.56;;;22.84;29.03
22389;BME280;11362;48.102;11.620;2023-04-08T02:50:38;95251.81;;;22.85;29.01
22389;BME280;11362;48.102;11.620;2023-04-08T02:53:03;95255.34;;;22.85;29.16
22389;BME280;11362;48.102;11.620;2023-04-08T02:55:28;95247.47;;;22.84;29.05
22389;BME280;11362;48.102;11.620;2023-04-08T02:57:54;95250.25;;;22.84;29.01
22389;BME280;11362;48.102;11.620;2023-04-08T03:00:19;95245.88;;;22.83;29.05
22389;BME280;11362;48.102;11.620;2023-04-08T03:02:44;95254.19;;;22.83;29.05
22389;BME280;11362;48.102;11.620;2023-04-08T03:05:10;95245.88;;;22.83;28.91
22389;BME280;11362;48.102;11.620;2023-04-08T03:07:35;95252.22;;;22.83;28.91
22389;BME280;11362;48.102;11.620;2023-04-08T03:10:01;95261.31;;;22.84;29.10
22389;BME280;11362;48.102;11.620;2023-04-08T03:12:26;95259.31;;;22.84;28.93
22389;BME280;11362;48.102;11.620;2023-04-08T03:14:52;95256.97;;;22.83;28.95
22389;BME280;11362;48.102;11.620;2023-04-08T03:17:18;95259.72;;;22.83;29.12
22389;BME280;11362;48.102;11.620;2023-04-08T03:19:43;95268.84;;;22.83;28.98
22389;BME280;11362;48.102;11.620;2023-04-08T03:22:08;95272.00;;;22.82;28.96
22389;BME280;11362;48.102;11.620;2023-04-08T03:24:34;95263.31;;;22.83;29.07
22389;BME280;11362;48.102;11.620;2023-04-08T03:27:00;95266.88;;;22.84;29.09
22389;BME280;11362;48.102;11.620;2023-04-08T03:29:25;95260.94;;;22.82;29.15
22389;BME280;11362;48.102;11.620;2023-04-08T03:31:50;95265.28;;;22.83;29.07
22389;BME280;11362;48.102;11.620;2023-04-08T03:34:15;95267.28;;;22.82;29.07
22389;BME280;11362;48.102;11.620;2023-04-08T03:36:41;95264.91;;;22.81;28.99
22389;BME280;11362;48.102;11.620;2023-04-08T03:39:06;95266.47;;;22.82;28.97
22389;BME280;11362;48.102;11.620;2023-04-08T03:41:31;95266.47;;;22.82;28.99
22389;BME280;11362;48.102;11.620;2023-04-08T03:43:57;95265.28;;;22.83;28.97
22389;BME280;11362;48.102;11.620;2023-04-08T03:46:22;95267.28;;;22.82;29.10
22389;BME280;11362;48.102;11.620;2023-04-08T03:48:47;95267.28;;;22.82;28.85
22389;BME280;11362;48.102;11.620;2023-04-08T03:51:13;95272.00;;;22.82;28.92
22389;BME280;11362;48.102;11.620;2023-04-08T03:53:38;95271.25;;;22.81;28.87
22389;BME280;11362;48.102;11.620;2023-04-08T03:56:04;95272.00;;;22.82;28.94
22389;BME280;11362;48.102;11.620;2023-04-08T03:58:29;95274.00;;;22.81;29.04
22389;BME280;11362;48.102;11.620;2023-04-08T04:00:54;95275.97;;;22.81;28.95
22389;BME280;11362;48.102;11.620;2023-04-08T04:03:20;95284.28;;;22.81;28.87
22389;BME280;11362;48.102;11.620;2023-04-08T04:05:45;95280.75;;;22.80;28.82
22389;BME280;11362;48.102;11.620;2023-04-08T04:08:10;95282.72;;;22.80;29.13
22389;BME280;11362;48.102;11.620;2023-04-08T04:10:36;95287.06;;;22.81;29.08
22389;BME280;11362;48.102;11.620;2023-04-08T04:13:01;95293.00;;;22.79;28.98
22389;BME280;11362;48.102;11.620;2023-04-08T04:15:26;95292.59;;;22.81;28.97
22389;BME280;11362;48.102;11.620;2023-04-08T04:17:51;95297.38;;;22.80;28.98
22389;BME280;11362;48.102;11.620;2023-04-08T04:20:17;95295.78;;;22.79;29.05
22389;BME280;11362;48.102;11.620;2023-04-08T04:22:43;95302.47;;;22.82;29.14
22389;BME280;11362;48.102;11.620;2023-04-08T04:25:08;95299.72;;;22.82;29.15
22389;BME280;11362;48.102;11.620;2023-04-08T04:27:34;95305.69;;;22.80;28.95
22389;BME280;11362;48.102;11.620;2023-04-08T04:29:59;95302.91;;;22.80;29.00
22389;BME280;11362;48.102;11.620;2023-04-08T04:32:25;95305.69;;;22.80;29.08
22389;BME280;11362;48.102;11.620;2023-04-08T04:34:50;95306.84;;;22.79;28.85
22389;BME280;11362;48.102;11.620;2023-04-08T04:37:15;95300.13;;;22.80;29.06
22389;BME280;11362;48.102;11.620;2023-04-08T04:39:41;95312.38;;;22.79;29.10
22389;BME280;11362;48.102;11.620;2023-04-08T04:42:06;95307.66;;;22.80;29.14
22389;BME280;11362;48.102;11.620;2023-04-08T04:44:31;95311.63;;;22.79;29.16
22389;BME280;11362;48.102;11.620;2023-04-08T04:46:57;95322.69;;;22.79;29.00
22389;BME280;11362;48.102;11.620;2023-04-08T04:49:22;95320.28;;;22.81;29.43
22389;BME280;11362;48.102;11.620;2023-04-08T04:51:47;95315.94;;;22.80;29.08
22389;BME280;11362;48.102;11.620;2023-04-08T04:54:13;95317.53;;;22.81;29.00
22389;BME280;11362;48.102;11.620;2023-04-08T04:56:38;95312.38;;;22.79;29.08
22389;BME280;11362;48.102;11.620;2023-04-08T04:59:03;95321.91;;;22.78;29.09
22389;BME280;11362;48.102;11.620;2023-04-08T05:01:28;95319.53;;;22.80;29.13
22389;BME280;11362;48.102;11.620;2023-04-08T05:03:54;95323.47;;;22.79;29.02
22389;BME280;11362;48.102;11.620;2023-04-08T05:06:19;95322.69;;;22.79;29.08
22389;BME280;11362;48.102;11.620;2023-04-08T05:08:44;95319.94;;;22.79;29.13
22389;BME280;11362;48.102;11.620;2023-04-08T05:11:10;95324.25;;;22.80;28.97
22389;BME280;11362;48.102;11.620;2023-04-08T05:13:35;95334.13;;;22.81;29.04
22389;BME280;11362;48.102;11.620;2023-04-08T05:16:00;95324.25;;;22.80;28.99
22389;BME280;11362;48.102;11.620;2023-04-08T05:18:26;95320.69;;;22.79;29.15
22389;BME280;11362;48.102;11.620;2023-04-08T05:20:51;95324.25;;;22.80;29.21
22389;BME280;11362;48.102;11.620;2023-04-08T05:23:16;95328.22;;;22.79;29.11
22389;BME280;11362;48.102;11.620;2023-04-08T05:25:42;95328.22;;;22.79;29.07
22389;BME280;11362;48.102;11.620;2023-04-08T05:28:08;95328.22;;;22.79;29.30
22389;BME280;11362;48.102;11.620;2023-04-08T05:30:33;95328.22;;;22.79;29.23
22389;BME280;11362;48.102;11.620;2023-04-08T05:32:58;95323.47;;;22.79;29.04
22389;BME280;11362;48.102;11.620;2023-04-08T05:35:24;95327.03;;;22.80;29.17
22389;BME280;11362;48.102;11.620;2023-04-08T05:37:49;95330.59;;;22.80;29.09
22389;BME280;11362;48.102;11.620;2023-04-08T05:40:14;95324.25;;;22.80;28.95
22389;BME280;11362;48.102;11.620;2023-04-08T05:42:40;95324.25;;;22.80;29.18
22389;BME280;11362;48.102;11.620;2023-04-08T05:45:05;95328.22;;;22.79;29.11
22389;BME280;11362;48.102;11.620;2023-04-08T05:47:31;95331.00;;;22.79;29.06
22389;BME280;11362;48.102;11.620;2023-04-08T05:49:57;95328.22;;;22.79;29.21
22389;BME280;11362;48.102;11.620;2023-04-08T05:52:22;95326.66;;;22.78;29.21
22389;BME280;11362;48.102;11.620;2023-04-08T05:54:47;95328.22;;;22.79;29.04
22389;BME280;11362;48.102;11.620;2023-04-08T05:57:13;95329.81;;;22.80;28.92
22389;BME280;11362;48.102;11.620;2023-04-08T05:59:38;95332.56;;;22.80;29.20
22389;BME280;11362;48.102;11.620;2023-04-08T06:02:03;95333.78;;;22.79;29.20
22389;BME280;11362;48.102;11.620;2023-04-08T06:04:29;95321.91;;;22.78;29.39
22389;BME280;11362;48.102;11.620;2023-04-08T06:06:54;95329.81;;;22.80;29.30
22389;BME280;11362;48.102;11.620;2023-04-08T06:09:19;95339.31;;;22.79;29.25
22389;BME280;11362;48.102;11.620;2023-04-08T06:11:45;95340.88;;;22.80;29.17
22389;BME280;11362;48.102;11.620;2023-04-08T06:14:10;95342.44;;;22.81;29.09
22389;BME280;11362;48.102;11.620;2023-04-08T06:16:35;95341.69;;;22.80;29.17
22389;BME280;11362;48.102;11.620;2023-04-08T06:19:00;95340.88;;;22.80;29.18
22389;BME280;11362;48.102;11.620;2023-04-08T06:21:26;95341.28;;;22.78;29.17
22389;BME280;11362;48.102;11.620;2023-04-08T06:23:51;95340.88;;;22.80;29.23
22389;BME280;11362;48.102;11.620;2023-04-08T06:26:16;95344.84;;;22.79;29.28
22389;BME280;11362;48.102;11.620;2023-04-08T06:28:41;95351.16;;;22.79;29.29
22389;BME280;11362;48.102;11.620;2023-04-08T06:31:07;95342.06;;;22.79;29.24
22389;BME280;11362;48.102;11.620;2023-04-08T06:33:32;95345.63;;;22.79;29.32
22389;BME280;11362;48.102;11.620;2023-04-08T06:36:04;95349.19;;;22.80;29.12
22389;BME280;11362;48.102;11.620;2023-04-08T06:38:30;95348.38;;;22.79;29.29
22389;BME280;11362;48.102;11.620;2023-04-08T06:40:55;95354.72;;;22.80;29.27
22389;BME280;11362;48.102;11.620;2023-04-08T06:43:21;95349.19;;;22.80;29.39
22389;BME280;11362;48.102;11.620;2023-04-08T06:45:46;95357.50;;;22.80;29.25
22389;BME280;11362;48.102;11.620;2023-04-08T06:48:11;95353.94;;;22.79;29.38
22389;BME280;11362;48.102;11.620;2023-04-08T06:50:37;95367.78;;;22.79;29.28
22389;BME280;11362;48.102;11.620;2023-04-08T06:53:02;95357.91;;;22.78;29.44
22389;BME280;11362;48.102;11.620;2023-04-08T06:55:27;95359.09;;;22.77;29.45
22389;BME280;11362;48.102;11.620;2023-04-08T06:57:52;95369.78;;;22.79;29.30
22389;BME280;11362;48.102;11.620;2023-04-08T07:00:18;95369.78;;;22.79;29.28
22389;BME280;11362;48.102;11.620;2023-04-08T07:02:43;95362.66;;;22.78;29.34
22389;BME280;11362;48.102;11.620;2023-04-08T07:05:08;95374.09;;;22.80;29.24
22389;BME280;11362;48.102;11.620;2023-04-08T07:07:34;95368.97;;;22.78;29.27
22389;BME280;11362;48.102;11.620;2023-04-08T07:09:59;95364.63;;;22.77;29.29
22389;BME280;11362;48.102;11.620;2023-04-08T07:12:24;95374.09;;;22.80;29.27
22389;BME280;11362;48.102;11.620;2023-04-08T07:14:49;95365.81;;;22.80;29.41
22389;BME280;11362;48.102;11.620;2023-04-08T07:17:15;95370.53;;;22.79;29.39
22389;BME280;11362;48.102;11.620;2023-04-08T07:19:40;95374.09;;;22.80;29.44
22389;BME280;11362;48.102;11.620;2023-04-08T07:22:05;95375.69;;;22.81;29.30
22389;BME280;11362;48.102;11.620;2023-04-08T07:24:30;95377.25;;;22.82;29.38
22389;BME280;11362;48.102;11.620;2023-04-08T07:26:56;95380.03;;;22.82;29.33
22389;BME280;11362;48.102;11.620;2023-04-08T07:29:21;95386.00;;;22.80;29.28
22389;BME280;11362;48.102;11.620;2023-04-08T07:31:46;95387.56;;;22.81;29.36
22389;BME280;11362;48.102;11.620;2023-04-08T07:34:12;95385.19;;;22.80;29.24
22389;BME280;11362;48.102;11.620;2023-04-08T07:36:37;95396.63;;;22.82;29.28
22389;BME280;11362;48.102;11.620;2023-04-08T07:39:02;95395.88;;;22.81;29.21
22389;BME280;11362;48.102;11.620;2023-04-08T07:41:28;95391.94;;;22.79;29.51
22389;BME280;11362;48.102;11.620;2023-04-08T07:43:53;95397.84;;;22.81;29.39
22389;BME280;11362;48.102;11.620;2023-04-08T07:46:18;95395.88;;;22.81;29.57
22389;BME280;11362;48.102;11.620;2023-04-08T07:48:44;95392.28;;;22.81;29.28
22389;BME280;11362;48.102;11.620;2023-04-08T07:51:09;95399.41;;;22.82;29.29
22389;BME280;11362;48.102;11.620;2023-04-08T07:53:34;95409.72;;;22.81;29.31
22389;BME280;11362;48.102;11.620;2023-04-08T07:56:00;95402.59;;;22.80;29.25
22389;BME280;11362;48.102;11.620;2023-04-08T07:58:26;95404.94;;;22.82;29.55
22389;BME280;11362;48.102;11.620;2023-04-08T08:00:52;95411.69;;;22.81;29.36
22389;BME280;11362;48.102;11.620;2023-04-08T08:03:17;95401.81;;;22.80;29.42
22389;BME280;11362;48.102;11.620;2023-04-08T08:05:42;95412.88;;;22.80;29.42
22389;BME280;11362;48.102;11.620;2023-04-08T08:08:08;95409.31;;;22.79;29.34
22389;BME280;11362;48.102;11.620;2023-04-08T08:10:33;95411.69;;;22.81;29.47
22389;BME280;11362;48.102;11.620;2023-04-08T08:12:58;95408.91;;;22.81;29.89
22389;BME280;11362;48.102;11.620;2023-04-08T08:15:24;95414.44;;;22.81;29.42
22389;BME280;11362;48.102;11.620;2023-04-08T08:17:49;95411.69;;;22.81;29.47
22389;BME280;11362;48.102;11.620;2023-04-08T08:20:15;95420.00;;;22.81;29.41
22389;BME280;11362;48.102;11.620;2023-04-08T08:22:40;95418.41;;;22.80;29.36
22389;BME280;11362;48.102;11.620;2023-04-08T08:25:06;95418.41;;;22.80;29.33
22389;BME280;11362;48.102;11.620;2023-04-08T08:27:31;95422.75;;;22.81;29.35
22389;BME280;11362;48.102;11.620;2023-04-08T08:29:56;95425.53;;;22.81;29.40
22389;BME280;11362;48.102;11.620;2023-04-08T08:32:21;95423.97;;;22.80;29.28
22389;BME280;11362;48.102;11.620;2023-04-08T08:34:47;95429.50;;;22.80;29.30
22389;BME280;11362;48.102;11.620;2023-04-08T08:37:12;95425.16;;;22.79;29.26
22389;BME280;11362;48.102;11.620;2023-04-08T08:39:37;95431.91;;;22.78;29.16
22389;BME280;11362;48.102;11.620;2023-04-08T08:42:02;95431.47;;;22.79;29.33
22389;BME280;11362;48.102;11.620;2023-04-08T08:44:29;95430.69;;;22.79;29.29
22389;BME280;11362;48.102;11.620;2023-04-08T08:46:54;95433.47;;;22.79;29.41
22389;BME280;11362;48.102;11.620;2023-04-08T08:49:19;95437.00;;;22.79;29.41
22389;BME280;11362;48.102;11.620;2023-04-08T08:51:45;95441.78;;;22.79;29.38
22389;BME280;11362;48.102;11.620;2023-04-08T08:54:10;95433.47;;;22.79;29.29
22389;BME280;11362;48.102;11.620;2023-04-08T08:56:36;95440.97;;;22.78;29.43
22389;BME280;11362;48.102;11.620;2023-04-08T08:59:01;95439.00;;;22.79;29.24
22389;BME280;11362;48.102;11.620;2023-04-08T09:01:36;95447.31;;;22.79;29.24
22389;BME280;11362;48.102;11.620;2023-04-08T09:04:07;95439.00;;;22.79;29.21
22389;BME280;11362;48.102;11.620;2023-04-08T09:06:32;95450.09;;;22.79;29.12
22389;BME280;11362;48.102;11.620;2023-04-08T09:08:58;95450.09;;;22.79;29.34
22389;BME280;11362;48.102;11.620;2023-04-08T09:11:23;95441.78;;;22.79;29.28
22389;BME280;11362;48.102;11.620;2023-04-08T09:13:48;95450.84;;;22.79;29.27
22389;BME280;11362;48.102;11.620;2023-04-08T09:16:18;95451.66;;;22.80;29.28
22389;BME280;11362;48.102;11.620;2023-04-08T09:18:44;95452.47;;;22.77;29.32
22389;BME280;11362;48.102;11.620;2023-04-08T09:21:11;95452.47;;;22.77;29.66
22389;BME280;11362;48.102;11.620;2023-04-08T09:23:44;95454.81;;;22.78;29.32
22389;BME280;11362;48.102;11.620;2023-04-08T09:26:12;95454.81;;;22.78;29.22
22389;BME280;11362;48.102;11.620;2023-04-08T09:28:39;95466.69;;;22.79;29.13
22389;BME280;11362;48.102;11.620;2023-04-08T09:33:42;95463.13;;;22.78;29.30
22389;BME280;11362;48.102;11.620;2023-04-08T09:36:07;95450.84;;;22.79;29.33
22389;BME280;11362;48.102;11.620;2023-04-08T09:38:33;95457.59;;;22.78;29.34
22389;BME280;11362;48.102;11.620;2023-04-08T09:40:59;95465.91;;;22.78;29.21
22389;BME280;11362;48.102;11.620;2023-04-08T09:43:30;95465.13;;;22.78;29.42
22389;BME280;11362;48.102;11.620;2023-04-08T09:45:59;95462.75;;;22.76;29.28
22389;BME280;11362;48.102;11.620;2023-04-08T09:48:31;95461.16;;;22.79;29.25
22389;BME280;11362;48.102;11.620;2023-04-08T09:51:00;95466.69;;;22.79;29.09
22389;BME280;11362;48.102;11.620;2023-04-08T09:53:29;95461.16;;;22.79;29.21
22389;BME280;11362;48.102;11.620;2023-04-08T09:55:59;95455.63;;;22.79;29.26
22389;BME280;11362;48.102;11.620;2023-04-08T09:58:28;95460.38;;;22.78;29.20
22389;BME280;11362;48.102;11.620;2023-04-08T10:00:54;95465.91;;;22.78;28.98
22389;BME280;11362;48.102;11.620;2023-04-08T10:03:29;95459.59;;;22.78;29.25
22389;BME280;11362;48.102;11.620;2023-04-08T10:06:00;95462.72;;;22.80;29.12
22389;BME280;11362;48.102;11.620;2023-04-08T10:08:25;95459.97;;;22.80;29.32
22389;BME280;11362;48.102;11.620;2023-04-08T10:10:53;95466.69;;;22.79;29.17
22389;BME280;11362;48.102;11.620;2023-04-08T10:13:19;95459.59;;;22.78;29.29
22389;BME280;11362;48.102;11.620;2023-04-08T10:15:44;95455.63;;;22.79;29.22
22389;BME280;11362;48.102;11.620;2023-04-08T10:23:01;95458.00;;;22.80;29.19
22389;BME280;11362;48.102;11.620;2023-04-08T10:25:36;95461.13;;;22.82;28.98
22389;BME280;11362;48.102;11.620;2023-04-08T10:33:16;95460.75;;;22.80;28.94
22389;BME280;11362;48.102;11.620;2023-04-08T10:35:46;95457.19;;;22.80;29.14
22389;BME280;11362;48.102;11.620;2023-04-08T10:38:13;95458.00;;;22.80;29.08
22389;BME280;11362;48.102;11.620;2023-04-08T10:40:39;95458.00;;;22.80;29.09
22389;BME280;11362;48.102;11.620;2023-04-08T10:43:05;95455.63;;;22.79;29.16
22389;BME280;11362;48.102;11.620;2023-04-08T10:45:30;95450.84;;;22.79;29.02
22389;BME280;11362;48.102;11.620;2023-04-08T10:47:55;95445.31;;;22.79;29.11
22389;BME280;11362;48.102;11.620;2023-04-08T10:50:21;95446.50;;;22.78;28.94
22389;BME280;11362;48.102;11.620;2023-04-08T10:52:50;95445.75;;;22.78;29.15
22389;BME280;11362;48.102;11.620;2023-04-08T10:55:26;95449.28;;;22.78;29.17
22389;BME280;11362;48.102;11.620;2023-04-08T10:57:52;95445.75;;;22.78;29.01
22389;BME280;11362;48.102;11.620;2023-04-08T11:00:39;95451.28;;;22.78;29.00
22389;BME280;11362;48.102;11.620;2023-04-08T11:03:08;95442.97;;;22.78;29.18
22389;BME280;11362;48.102;11.620;2023-04-08T11:05:34;95445.75;;;22.78;29.14
22389;BME280;11362;48.102;11.620;2023-04-08T11:08:00;95443.75;;;22.78;29.12
22389;BME280;11362;48.102;11.620;2023-04-08T11:10:26;95444.19;;;22.77;28.82
22389;BME280;11362;48.102;11.620;2023-04-08T11:12:55;95446.16;;;22.76;29.11
22389;BME280;11362;48.102;11.620;2023-04-08T11:15:22;95445.34;;;22.76;29.19
22389;BME280;11362;48.102;11.620;2023-04-08T11:17:48;95451.69;;;22.76;29.15
22389;BME280;11362;48.102;11.620;2023-04-08T11:20:14;95446.16;;;22.76;28.99
22389;BME280;11362;48.102;11.620;2023-04-08T11:22:40;95455.25;;;22.77;29.09
22389;BME280;11362;48.102;11.620;2023-04-08T11:25:06;95445.34;;;22.76;29.26
22389;BME280;11362;48.102;11.620;2023-04-08T11:27:33;95445.34;;;22.76;29.26
22389;BME280;11362;48.102;11.620;2023-04-08T11:29:58;95456.41;;;22.76;29.26
22389;BME280;11362;48.102;11.620;2023-04-08T11:32:24;95456.41;;;22.76;28.98
22389;BME280;11362;48.102;11.620;2023-04-08T11:34:49;95456.41;;;22.76;29.11
22389;BME280;11362;48.102;11.620;2023-04-08T11:37:15;95454.84;;;22.75;29.17
22389;BME280;11362;48.102;11.620;2023-04-08T11:39:44;95456.41;;;22.76;29.29
22389;BME280;11362;48.102;11.620;2023-04-08T11:42:27;95458.41;;;22.75;29.19
22389;BME280;11362;48.102;11.620;2023-04-08T11:44:52;95458.41;;;22.75;29.17
22389;BME280;11362;48.102;11.620;2023-04-08T11:47:17;95456.41;;;22.76;29.01
22389;BME280;11362;48.102;11.620;2023-04-08T11:49:46;95459.19;;;22.76;29.13
22389;BME280;11362;48.102;11.620;2023-04-08T11:52:12;95462.75;;;22.76;29.11
22389;BME280;11362;48.102;11.620;2023-04-08T11:54:40;95461.97;;;22.76;29.14
22389;BME280;11362;48.102;11.620;2023-04-08T11:57:06;95460.38;;;22.75;29.06
22389;BME280;11362;48.102;11.620;2023-04-08T11:59:31;95455.66;;;22.75;29.10
22389;BME280;11362;48.102;11.620;2023-04-08T12:01:57;95463.97;;;22.75;29.21
22389;BME280;11362;48.102;11.620;2023-04-08T12:04:22;95464.72;;;22.76;29.07
22389;BME280;11362;48.102;11.620;2023-04-08T12:06:47;95470.69;;;22.74;29.09
22389;BME280;11362;48.102;11.620;2023-04-08T12:09:13;95465.56;;;22.73;29.05
22389;BME280;11362;48.102;11.620;2023-04-08T12:11:38;95475.03;;;22.75;29.38
22389;BME280;11362;48.102;11.620;2023-04-08T12:14:03;95477.81;;;22.75;29.22
22389;BME280;11362;48.102;11.620;2023-04-08T12:16:28;95476.22;;;22.74;29.08
22389;BME280;11362;48.102;11.620;2023-04-08T12:18:54;95476.22;;;22.74;29.09
22389;BME280;11362;48.102;11.620;2023-04-08T12:21:19;95484.53;;;22.74;29.03
22389;BME280;11362;48.102;11.620;2023-04-08T12:23:44;95482.53;;;22.75;29.08
22389;BME280;11362;48.102;11.620;2023-04-08T12:26:09;95482.53;;;22.75;29.11
22389;BME280;11362;48.102;11.620;2023-04-08T12:28:35;95484.53;;;22.74;29.25
22389;BME280;11362;48.102;11.620;2023-04-08T12:31:00;95480.97;;;22.74;29.15
22389;BME280;11362;48.102;11.620;2023-04-08T12:33:26;95480.19;;;22.73;29.08
22389;BME280;11362;48.102;11.620;2023-04-08T12:35:51;95484.94;;;22.73;29.11
22389;BME280;11362;48.102;11.620;2023-04-08T12:38:16;95488.50;;;22.73;29.21
22389;BME280;11362;48.102;11.620;2023-04-08T12:40:41;95485.75;;;22.73;29.23
22389;BME280;11362;48.102;11.620;2023-04-08T12:43:07;95493.63;;;22.75;29.15
22389;BME280;11362;48.102;11.620;2023-04-08T12:45:32;95489.69;;;22.72;29.28
22389;BME280;11362;48.102;11.620;2023-04-08T12:47:57;95492.03;;;22.74;29.13
22389;BME280;11362;48.102;11.620;2023-04-08T12:50:22;95498.38;;;22.74;29.17
22389;BME280;11362;48.102;11.620;2023-04-08T12:52:48;95493.63;;;22.75;29.12
22389;BME280;11362;48.102;11.620;2023-04-08T12:55:13;95486.50;;;22.74;29.19
22389;BME280;11362;48.102;11.620;2023-04-08T12:57:38;95495.63;;;22.74;29.24
22389;BME280;11362;48.102;11.620;2023-04-08T13:00:04;95497.59;;;22.74;29.19